Time;durP1;ratioP1;P1;durP2;ratioP2;P2;SDS_P1;SDS_P2;PMS_P1;PMS_P2;Temp;Humidity;BMP_temperature;BMP_pressure;BME280_temperature;BME280_humidity;BME280_pressure;Samples;Min_cycle;Max_cycle;Signal;HPM_P1;HPM_P2
2023/09/08 00:00:57;;;;;;;9.03;7.03;;;20.20;99.90;;;;;;5133831;27;20051;-74
2023/09/08 00:03:22;;;;;;;13.60;7.30;;;20.10;99.90;;;;;;5117424;27;20083;-73
2023/09/08 00:05:48;;;;;;;13.30;7.53;;;20.10;99.90;;;;;;5133990;27;20383;-74
2023/09/08 00:08:14;;;;;;;10.33;7.27;;;20.10;99.90;;;;;;5100124;27;20125;-73
2023/09/08 00:10:40;;;;;;;11.13;7.90;;;20.10;99.90;;;;;;5083102;27;20146;-73
2023/09/08 00:13:06;;;;;;;10.73;7.20;;;20.00;99.90;;;;;;5133788;27;20055;-74
2023/09/08 00:15:35;;;;;;;9.53;6.93;;;20.00;99.90;;;;;;5116939;27;20451;-73
2023/09/08 00:18:00;;;;;;;10.97;7.37;;;20.00;99.90;;;;;;5116190;27;20046;-74
2023/09/08 00:20:26;;;;;;;11.87;7.33;;;19.90;99.90;;;;;;5134253;27;20487;-73
2023/09/08 00:22:52;;;;;;;10.10;7.63;;;19.90;99.90;;;;;;5116573;27;20043;-74
2023/09/08 00:25:18;;;;;;;9.40;7.53;;;19.90;99.90;;;;;;5116257;27;20051;-74
2023/09/08 00:27:44;;;;;;;9.03;7.00;;;19.90;99.90;;;;;;5098812;27;20051;-74
2023/09/08 00:30:10;;;;;;;9.70;7.87;;;19.80;99.90;;;;;;5116354;27;20387;-74
2023/09/08 00:32:36;;;;;;;11.20;7.90;;;19.80;99.90;;;;;;5133923;27;20376;-74
2023/09/08 00:35:02;;;;;;;9.43;7.40;;;19.70;99.90;;;;;;5116238;27;20050;-74
2023/09/08 00:37:27;;;;;;;8.50;7.60;;;19.80;99.90;;;;;;5133269;27;20551;-74
2023/09/08 00:39:53;;;;;;;12.83;7.30;;;19.80;99.90;;;;;;5138454;27;20054;-74
2023/09/08 00:42:19;;;;;;;12.53;7.40;;;19.70;99.90;;;;;;5137052;27;20137;-73
2023/09/08 00:44:45;;;;;;;9.27;7.57;;;19.80;99.90;;;;;;5154882;27;20435;-74
2023/09/08 00:47:14;;;;;;;10.67;7.30;;;19.70;99.90;;;;;;5136954;27;20078;-74
2023/09/08 00:49:39;;;;;;;9.80;7.27;;;19.70;99.90;;;;;;5136358;27;20485;-74
2023/09/08 00:52:05;;;;;;;10.90;7.30;;;19.70;99.90;;;;;;5102212;27;20126;-74
2023/09/08 00:54:31;;;;;;;12.13;8.03;;;19.70;99.90;;;;;;5136747;27;20130;-74
2023/09/08 00:56:58;;;;;;;12.20;6.97;;;19.60;99.90;;;;;;5102499;27;20129;-74
2023/09/08 00:59:24;;;;;;;11.43;7.67;;;19.60;99.90;;;;;;5102575;27;20467;-74
2023/09/08 01:01:51;;;;;;;10.83;7.90;;;19.60;99.90;;;;;;5136186;27;20051;-74
2023/09/08 01:04:16;;;;;;;9.53;7.53;;;19.60;99.90;;;;;;5136292;27;20103;-74
2023/09/08 01:06:46;;;;;;;10.10;8.17;;;19.50;99.90;;;;;;5119469;27;20042;-74
2023/09/08 01:09:13;;;;;;;9.60;8.20;;;19.50;99.90;;;;;;5135939;27;20103;-74
2023/09/08 01:11:39;;;;;;;10.77;7.67;;;19.50;99.90;;;;;;5136245;27;20043;-74
2023/09/08 01:14:05;;;;;;;10.47;7.83;;;19.40;99.90;;;;;;5101804;27;20042;-74
2023/09/08 01:16:31;;;;;;;11.30;8.00;;;19.50;99.90;;;;;;5136028;27;20512;-74
2023/09/08 01:18:57;;;;;;;12.63;7.47;;;19.40;99.90;;;;;;5135886;27;20050;-74
2023/09/08 01:21:47;;;;;;;11.90;7.90;;;19.40;99.90;;;;;;5119013;27;20078;-74
2023/09/08 01:24:37;;;;;;;9.93;7.67;;;19.40;99.90;;;;;;5135913;27;20086;-74
2023/09/08 01:27:03;;;;;;;11.27;8.30;;;19.30;99.90;;;;;;5154273;27;20039;-74
2023/09/08 01:29:30;;;;;;;8.77;7.87;;;19.40;99.90;;;;;;5118994;27;20049;-74
2023/09/08 01:31:56;;;;;;;11.70;8.67;;;19.30;99.90;;;;;;5135891;27;20078;-75
2023/09/08 01:34:22;;;;;;;14.53;8.03;;;19.30;99.90;;;;;;5118960;27;20116;-74
2023/09/08 01:36:49;;;;;;;10.23;7.97;;;19.20;99.90;;;;;;5136263;27;20086;-74
2023/09/08 01:39:16;;;;;;;10.00;8.17;;;19.20;99.90;;;;;;5134860;27;20099;-74
2023/09/08 01:41:41;;;;;;;11.87;7.93;;;19.20;99.90;;;;;;5114834;28;20392;-74
2023/09/08 01:44:11;;;;;;;11.70;8.23;;;19.20;99.90;;;;;;5132006;28;20059;-74
2023/09/08 01:46:44;;;;;;;10.10;8.60;;;19.20;99.90;;;;;;5132448;28;20110;-74
2023/09/08 01:49:10;;;;;;;10.13;8.03;;;19.20;99.90;;;;;;5132079;28;20043;-74
2023/09/08 01:51:35;;;;;;;9.87;8.50;;;19.10;99.90;;;;;;5133365;28;20058;-74
2023/09/08 01:54:01;;;;;;;10.83;7.90;;;19.10;99.90;;;;;;5132166;28;20433;-75
2023/09/08 01:56:27;;;;;;;11.17;7.97;;;19.10;99.90;;;;;;5115172;28;20119;-74
2023/09/08 01:58:53;;;;;;;13.77;8.30;;;19.00;99.90;;;;;;5115237;28;20050;-74
2023/09/08 02:01:18;;;;;;;13.93;8.47;;;19.10;99.90;;;;;;5114943;28;20100;-74
2023/09/08 02:03:44;;;;;;;13.53;8.40;;;19.10;99.90;;;;;;5132118;28;20429;-74
2023/09/08 02:06:10;;;;;;;11.13;8.07;;;19.00;99.90;;;;;;5115063;28;20096;-74
2023/09/08 02:08:35;;;;;;;10.17;8.27;;;19.00;99.90;;;;;;5098479;28;20040;-74
2023/09/08 02:11:02;;;;;;;9.33;8.27;;;18.90;99.90;;;;;;5131950;28;20047;-74
2023/09/08 02:13:28;;;;;;;11.57;8.90;;;18.90;99.90;;;;;;5132752;28;20133;-74
2023/09/08 02:15:54;;;;;;;11.80;9.10;;;18.80;99.90;;;;;;5114919;28;20468;-74
2023/09/08 02:18:20;;;;;;;12.97;8.33;;;18.80;99.90;;;;;;5131809;28;20069;-74
2023/09/08 02:20:46;;;;;;;10.97;8.07;;;18.80;99.90;;;;;;5098504;28;20475;-74
2023/09/08 02:23:11;;;;;;;10.27;8.23;;;18.80;99.90;;;;;;5133040;28;20043;-74
2023/09/08 02:25:37;;;;;;;10.50;9.40;;;18.70;99.90;;;;;;5132902;28;20047;-74
2023/09/08 02:28:04;;;;;;;10.53;9.00;;;18.70;99.90;;;;;;5114226;28;20072;-75
2023/09/08 02:30:30;;;;;;;10.17;9.17;;;18.70;99.90;;;;;;5114970;28;20181;-74
2023/09/08 02:32:56;;;;;;;12.13;8.67;;;18.70;99.90;;;;;;5132133;28;20134;-74
2023/09/08 02:35:24;;;;;;;10.63;8.70;;;18.70;99.90;;;;;;5131651;28;20043;-74
2023/09/08 02:37:49;;;;;;;10.63;8.87;;;18.70;99.90;;;;;;5132078;28;20061;-74
2023/09/08 02:40:15;;;;;;;10.33;9.27;;;18.60;99.90;;;;;;5097634;28;20051;-74
2023/09/08 02:42:44;;;;;;;13.73;8.87;;;18.60;99.90;;;;;;5131935;28;20146;-74
2023/09/08 02:45:15;;;;;;;11.90;9.13;;;18.60;99.90;;;;;;5131762;28;20202;-74
2023/09/08 02:47:41;;;;;;;10.03;8.20;;;18.50;99.90;;;;;;5114185;28;20157;-74
2023/09/08 02:50:07;;;;;;;10.37;8.80;;;18.50;99.90;;;;;;5133508;27;20092;-74
2023/09/08 02:52:33;;;;;;;11.27;9.13;;;18.50;99.90;;;;;;5135664;27;20043;-74
2023/09/08 02:54:59;;;;;;;11.50;8.77;;;18.50;99.90;;;;;;5136731;27;20047;-74
2023/09/08 02:57:24;;;;;;;9.80;8.63;;;18.50;99.90;;;;;;5101047;27;20588;-74
2023/09/08 02:59:51;;;;;;;11.97;9.03;;;18.40;99.90;;;;;;5135561;27;20107;-74
2023/09/08 03:02:17;;;;;;;13.23;8.93;;;18.50;99.90;;;;;;5135013;27;20053;-74
2023/09/08 03:04:42;;;;;;;10.97;8.63;;;18.50;99.90;;;;;;5117744;27;20047;-74
2023/09/08 03:07:08;;;;;;;12.57;9.13;;;18.50;99.90;;;;;;5117660;27;20100;-74
2023/09/08 03:09:34;;;;;;;9.63;8.63;;;18.50;99.90;;;;;;5135466;27;20035;-74
2023/09/08 03:12:00;;;;;;;9.27;8.33;;;18.40;99.90;;;;;;5136322;27;20050;-74
2023/09/08 03:14:26;;;;;;;10.63;8.93;;;18.50;99.90;;;;;;5134958;27;20039;-74
2023/09/08 03:16:52;;;;;;;10.33;9.23;;;18.40;99.90;;;;;;5135291;27;20054;-74
2023/09/08 03:19:21;;;;;;;12.23;9.33;;;18.30;99.90;;;;;;5135888;27;20139;-74
2023/09/08 03:21:46;;;;;;;11.97;9.87;;;18.30;99.90;;;;;;5117561;27;20100;-74
2023/09/08 03:24:12;;;;;;;13.20;9.50;;;18.30;99.90;;;;;;5083892;27;20363;-74
2023/09/08 03:26:40;;;;;;;13.00;9.10;;;18.30;99.90;;;;;;5117633;27;20122;-74
2023/09/08 03:29:06;;;;;;;12.07;9.40;;;18.30;99.90;;;;;;5117887;27;20057;-74
2023/09/08 03:31:32;;;;;;;12.83;8.87;;;18.20;99.90;;;;;;5117473;27;20046;-74
2023/09/08 03:33:57;;;;;;;11.87;8.90;;;18.20;99.90;;;;;;5135115;27;20107;-74
2023/09/08 03:36:25;;;;;;;14.13;9.50;;;18.20;99.90;;;;;;5117100;27;20046;-74
2023/09/08 03:38:50;;;;;;;12.07;9.53;;;18.10;99.90;;;;;;5135088;27;20047;-74
2023/09/08 03:41:16;;;;;;;10.27;8.83;;;18.10;99.90;;;;;;5116771;27;20047;-74
2023/09/08 03:43:42;;;;;;;12.97;8.87;;;18.10;99.90;;;;;;5134473;27;20051;-74
2023/09/08 03:46:07;;;;;;;9.40;8.40;;;18.10;99.90;;;;;;5117485;27;20388;-74
2023/09/08 03:48:33;;;;;;;15.00;9.63;;;18.00;99.90;;;;;;5116865;27;20039;-74
2023/09/08 03:50:59;;;;;;;11.30;9.47;;;18.00;99.90;;;;;;5117246;27;20050;-74
2023/09/08 03:53:26;;;;;;;11.80;9.33;;;18.00;99.90;;;;;;5134263;27;20039;-74
2023/09/08 03:55:51;;;;;;;13.53;10.57;;;18.00;99.90;;;;;;5134724;27;20047;-74
2023/09/08 03:58:17;;;;;;;11.30;10.10;;;18.00;99.90;;;;;;5116695;27;20043;-74
2023/09/08 04:00:43;;;;;;;16.70;10.30;;;18.00;99.90;;;;;;5133897;27;20512;-74
2023/09/08 04:03:09;;;;;;;12.90;10.20;;;18.00;99.90;;;;;;5117055;27;20179;-74
2023/09/08 04:05:40;;;;;;;11.50;9.83;;;18.00;99.90;;;;;;5101871;27;20143;-74
2023/09/08 04:08:06;;;;;;;12.07;10.07;;;18.00;99.90;;;;;;5117097;27;20093;-73
2023/09/08 04:10:32;;;;;;;13.40;11.00;;;17.90;99.90;;;;;;5134860;27;20051;-74
2023/09/08 04:12:57;;;;;;;13.50;10.23;;;17.90;99.90;;;;;;5135196;27;20058;-74
2023/09/08 04:15:24;;;;;;;13.20;9.83;;;17.90;99.90;;;;;;5133585;27;20063;-74
2023/09/08 04:17:49;;;;;;;10.93;9.67;;;17.90;99.90;;;;;;5134919;27;20501;-74
2023/09/08 04:20:15;;;;;;;14.20;10.53;;;17.80;99.90;;;;;;5116506;27;20054;-78
2023/09/08 04:22:41;;;;;;;11.90;10.20;;;17.90;99.90;;;;;;5133810;27;20043;-74
2023/09/08 04:25:07;;;;;;;13.70;11.73;;;17.90;99.90;;;;;;5134904;27;20371;-74
2023/09/08 04:27:33;;;;;;;12.87;10.10;;;17.90;99.90;;;;;;5116423;27;20047;-74
2023/09/08 04:29:59;;;;;;;12.67;11.03;;;17.90;99.90;;;;;;5116669;27;20137;-74
2023/09/08 04:32:25;;;;;;;12.47;10.83;;;17.80;99.90;;;;;;5116054;27;20119;-74
2023/09/08 04:34:51;;;;;;;12.40;11.10;;;17.70;99.90;;;;;;5099574;27;20047;-74
2023/09/08 04:37:17;;;;;;;12.37;10.43;;;17.70;99.90;;;;;;5099362;27;20119;-74
2023/09/08 04:39:42;;;;;;;17.23;11.13;;;17.70;99.90;;;;;;5133141;27;20039;-75
2023/09/08 04:42:10;;;;;;;11.80;10.57;;;17.70;99.90;;;;;;5099047;27;20130;-74
2023/09/08 04:44:35;;;;;;;12.43;10.80;;;17.70;99.90;;;;;;5116436;27;20483;-74
2023/09/08 04:47:02;;;;;;;12.20;10.90;;;17.70;99.90;;;;;;5133284;27;20518;-74
2023/09/08 04:49:28;;;;;;;15.60;10.50;;;17.70;99.90;;;;;;5115964;27;20055;-74
2023/09/08 04:51:54;;;;;;;16.77;11.27;;;17.70;99.90;;;;;;5099575;27;20062;-74
2023/09/08 04:54:20;;;;;;;12.50;10.80;;;17.60;99.90;;;;;;5133180;27;20483;-76
2023/09/08 04:56:45;;;;;;;11.37;10.17;;;17.60;99.90;;;;;;5116289;27;20483;-74
2023/09/08 04:59:11;;;;;;;13.30;10.60;;;17.60;99.90;;;;;;5115551;27;20184;-74
2023/09/08 05:01:37;;;;;;;14.27;11.20;;;17.60;99.90;;;;;;5132806;27;20095;-75
2023/09/08 05:04:05;;;;;;;15.77;10.33;;;17.60;99.90;;;;;;5133174;27;20048;-74
2023/09/08 05:06:31;;;;;;;13.27;11.80;;;17.60;99.90;;;;;;5099049;27;20047;-75
2023/09/08 05:08:59;;;;;;;12.97;10.43;;;17.60;99.90;;;;;;5098736;27;20046;-74
2023/09/08 05:11:25;;;;;;;12.33;10.87;;;17.50;99.90;;;;;;5115903;27;20103;-75
2023/09/08 05:13:51;;;;;;;13.90;12.10;;;17.60;99.90;;;;;;5132303;27;20043;-75
2023/09/08 05:16:18;;;;;;;16.13;10.63;;;17.60;99.90;;;;;;5115935;27;20380;-74
2023/09/08 05:18:44;;;;;;;14.67;11.83;;;17.50;99.90;;;;;;5115505;27;20083;-75
2023/09/08 05:21:10;;;;;;;13.53;11.27;;;17.60;99.90;;;;;;5133966;27;20090;-74
2023/09/08 05:23:36;;;;;;;13.17;11.77;;;17.60;99.90;;;;;;5133581;27;20073;-74
2023/09/08 05:26:01;;;;;;;13.13;11.20;;;17.60;99.90;;;;;;5115508;27;20108;-74
2023/09/08 05:28:29;;;;;;;15.60;11.97;;;17.60;99.90;;;;;;5132635;27;20051;-74
2023/09/08 05:30:56;;;;;;;11.87;10.67;;;17.60;99.90;;;;;;5115921;28;20043;-74
2023/09/08 05:33:21;;;;;;;14.70;11.40;;;17.60;99.90;;;;;;5115971;28;20047;-74
2023/09/08 05:35:47;;;;;;;14.67;10.97;;;17.60;99.90;;;;;;5132216;27;20108;-74
2023/09/08 05:38:14;;;;;;;12.20;10.90;;;17.60;99.90;;;;;;5132299;27;20082;-74
2023/09/08 05:40:39;;;;;;;13.00;11.60;;;17.60;99.90;;;;;;5131883;27;20055;-74
2023/09/08 05:43:05;;;;;;;13.60;10.90;;;17.60;99.90;;;;;;5132143;27;20054;-74
2023/09/08 05:45:34;;;;;;;12.97;10.90;;;17.60;99.90;;;;;;5132042;28;20122;-74
2023/09/08 05:48:00;;;;;;;14.70;11.40;;;17.60;99.90;;;;;;5098460;28;20403;-74
2023/09/08 05:50:28;;;;;;;13.17;11.77;;;17.60;99.90;;;;;;5098240;28;20047;-78
2023/09/08 05:52:54;;;;;;;12.17;10.97;;;17.60;99.90;;;;;;5098049;28;20058;-74
2023/09/08 05:55:20;;;;;;;13.53;11.40;;;17.60;99.90;;;;;;5132113;28;20055;-74
2023/09/08 05:57:46;;;;;;;12.10;10.37;;;17.80;99.90;;;;;;5114943;28;20045;-74
2023/09/08 06:00:12;;;;;;;12.77;10.90;;;17.70;99.90;;;;;;5132378;28;20047;-74
2023/09/08 06:02:38;;;;;;;12.33;10.87;;;17.80;99.90;;;;;;5132116;28;20059;-75
2023/09/08 06:05:04;;;;;;;12.63;10.27;;;17.80;99.90;;;;;;5098277;28;20057;-74
2023/09/08 06:07:29;;;;;;;11.73;10.57;;;17.90;99.90;;;;;;5114921;28;20111;-75
2023/09/08 06:09:56;;;;;;;13.23;10.30;;;18.30;99.90;;;;;;5115311;28;20041;-74
2023/09/08 06:12:22;;;;;;;10.93;9.83;;;19.20;99.90;;;;;;5098253;28;20475;-74
2023/09/08 06:14:47;;;;;;;15.87;10.20;;;20.30;99.90;;;;;;5114980;28;20108;-74
2023/09/08 06:17:13;;;;;;;12.63;10.03;;;21.50;99.90;;;;;;5120610;27;20063;-73
2023/09/08 06:19:39;;;;;;;10.90;9.70;;;22.60;99.90;;;;;;5098733;28;20036;-73
2023/09/08 06:22:04;;;;;;;10.43;8.97;;;23.60;99.90;;;;;;5103928;28;20077;-74
2023/09/08 06:24:30;;;;;;;11.47;9.13;;;24.10;99.90;;;;;;5077728;28;20101;-78
2023/09/08 06:26:56;;;;;;;12.70;9.77;;;23.90;99.90;;;;;;5098496;28;20413;-74
2023/09/08 06:29:23;;;;;;;12.20;8.77;;;23.90;99.90;;;;;;5115274;28;20046;-74
2023/09/08 06:31:48;;;;;;;11.40;7.40;;;24.60;99.90;;;;;;5115165;28;20151;-74
2023/09/08 06:34:16;;;;;;;10.43;7.77;;;25.40;99.90;;;;;;5114990;28;20075;-73
2023/09/08 06:36:42;;;;;;;10.70;7.90;;;26.20;99.90;;;;;;5116240;28;20058;-74
2023/09/08 06:39:07;;;;;;;9.13;7.87;;;26.80;99.90;;;;;;5098167;28;20394;-74
2023/09/08 06:41:33;;;;;;;11.70;7.20;;;27.60;97.80;;;;;;5114406;27;20059;-75
2023/09/08 06:44:00;;;;;;;10.40;7.17;;;28.30;94.40;;;;;;5158356;27;20046;-74
2023/09/08 06:46:25;;;;;;;9.67;6.90;;;28.90;89.30;;;;;;5139409;27;20045;-73
2023/09/08 06:48:51;;;;;;;9.10;6.53;;;29.00;81.00;;;;;;5157304;27;20474;-73
2023/09/08 06:51:17;;;;;;;10.57;7.37;;;29.50;75.20;;;;;;5122254;27;20047;-78
2023/09/08 06:53:44;;;;;;;9.83;6.67;;;29.90;70.80;;;;;;5157207;27;20042;-73
2023/09/08 06:56:09;;;;;;;9.70;7.07;;;30.40;67.20;;;;;;5139237;27;20379;-74
2023/09/08 06:58:35;;;;;;;8.05;6.72;;;30.80;63.40;;;;;;5157002;27;20037;-75
2023/09/08 07:01:01;;;;;;;7.75;6.07;;;31.20;61.60;;;;;;5139256;27;20058;-74
2023/09/08 07:03:27;;;;;;;8.18;6.45;;;31.50;59.40;;;;;;5138934;27;20467;-73
2023/09/08 07:05:52;;;;;;;8.35;6.05;;;31.50;57.80;;;;;;5138629;27;20042;-73
2023/09/08 07:08:18;;;;;;;8.20;6.40;;;31.80;57.20;;;;;;5156399;27;20080;-74
2023/09/08 07:10:51;;;;;;;8.07;6.75;;;32.20;55.90;;;;;;5156900;27;20042;-74
2023/09/08 07:13:16;;;;;;;7.95;7.03;;;32.50;54.40;;;;;;5157465;27;20487;-74
2023/09/08 07:15:42;;;;;;;7.65;6.53;;;32.80;53.10;;;;;;5156734;27;20142;-70
2023/09/08 07:18:08;;;;;;;10.32;6.85;;;33.00;52.40;;;;;;5156857;27;20069;-72
2023/09/08 07:20:35;;;;;;;8.13;6.65;;;33.00;51.70;;;;;;5137491;27;20114;-73
2023/09/08 07:23:01;;;;;;;9.15;6.20;;;33.30;51.20;;;;;;5155155;27;20046;-74
2023/09/08 07:25:26;;;;;;;6.95;6.25;;;33.70;50.80;;;;;;5136597;27;20046;-74
2023/09/08 07:27:53;;;;;;;8.88;6.43;;;33.80;50.30;;;;;;5138206;27;20050;-73
2023/09/08 07:30:22;;;;;;;15.05;6.68;;;34.20;49.70;;;;;;5121400;27;20121;-73
2023/09/08 07:32:48;;;;;;;8.25;6.50;;;34.50;48.70;;;;;;5156509;27;20039;-73
2023/09/08 07:35:15;;;;;;;8.88;5.95;;;34.90;48.10;;;;;;5156634;27;20049;-74
2023/09/08 07:37:41;;;;;;;8.45;6.60;;;34.90;47.40;;;;;;5120189;27;20046;-74
2023/09/08 07:40:11;;;;;;;8.68;5.80;;;35.20;47.00;;;;;;5138411;27;20050;-73
2023/09/08 07:42:37;;;;;;;8.75;5.90;;;35.40;46.40;;;;;;5138043;27;20063;-73
2023/09/08 07:45:03;;;;;;;6.50;5.90;;;35.50;46.60;;;;;;5138162;27;20386;-73
2023/09/08 07:47:29;;;;;;;10.23;6.40;;;35.20;46.40;;;;;;5121137;27;20054;-73
2023/09/08 07:50:22;;;;;;;6.88;5.70;;;34.30;46.80;;;;;;5137525;27;20451;-73
2023/09/08 07:52:49;;;;;;;7.88;5.90;;;33.10;48.00;;;;;;5156261;27;20129;-73
2023/09/08 07:55:15;;;;;;;11.07;5.68;;;31.90;49.60;;;;;;5137993;27;20050;-73
2023/09/08 07:57:48;;;;;;;8.35;5.95;;;31.00;50.80;;;;;;5156213;27;20038;-77
2023/09/08 08:00:14;;;;;;;8.75;6.57;;;30.40;52.80;;;;;;5120843;27;20107;-73
2023/09/08 08:02:43;;;;;;;8.77;5.68;;;29.60;53.40;;;;;;5137744;27;20490;-73
2023/09/08 08:05:10;;;;;;;7.38;5.30;;;29.00;55.30;;;;;;5121155;27;20054;-73
2023/09/08 08:07:35;;;;;;;7.53;6.05;;;28.50;57.10;;;;;;5120814;27;20082;-73
2023/09/08 08:10:01;;;;;;;7.72;5.90;;;28.30;59.30;;;;;;5155887;27;20093;-73
2023/09/08 08:12:27;;;;;;;8.48;6.22;;;28.00;60.40;;;;;;5137763;27;20042;-72
2023/09/08 08:14:53;;;;;;;7.53;5.72;;;27.80;62.20;;;;;;5137467;27;20087;-73
2023/09/08 08:17:21;;;;;;;7.32;5.25;;;27.70;64.70;;;;;;5137430;27;20046;-73
2023/09/08 08:19:47;;;;;;;8.27;5.50;;;27.50;66.80;;;;;;5120317;27;20039;-74
2023/09/08 08:22:13;;;;;;;8.80;5.28;;;27.50;68.30;;;;;;5137481;27;20041;-73
2023/09/08 08:24:38;;;;;;;11.65;5.97;;;27.30;69.70;;;;;;5137578;27;20043;-73
2023/09/08 08:27:04;;;;;;;8.63;5.72;;;27.20;71.00;;;;;;5120114;27;20062;-73
2023/09/08 08:29:31;;;;;;;10.68;5.32;;;27.10;72.70;;;;;;5137623;27;20066;-73
2023/09/08 08:31:56;;;;;;;8.30;5.40;;;27.00;73.90;;;;;;5120199;27;20129;-73
2023/09/08 08:34:22;;;;;;;9.00;5.85;;;26.80;76.60;;;;;;5137404;27;20129;-73
2023/09/08 08:36:48;;;;;;;7.25;5.63;;;26.70;77.70;;;;;;5119818;27;20050;-73
2023/09/08 08:39:13;;;;;;;10.20;5.60;;;26.60;80.00;;;;;;5136936;27;20135;-73
2023/09/08 08:41:41;;;;;;;12.73;5.60;;;26.50;82.70;;;;;;5119982;27;20055;-73
2023/09/08 08:44:10;;;;;;;7.97;5.65;;;26.40;84.20;;;;;;5103017;27;20614;-73
2023/09/08 08:46:38;;;;;;;9.52;5.63;;;26.30;86.00;;;;;;5137274;27;20053;-73
2023/09/08 08:49:04;;;;;;;14.52;6.38;;;26.20;85.90;;;;;;5154459;27;20046;-73
2023/09/08 08:51:35;;;;;;;10.43;5.95;;;26.20;86.80;;;;;;5137152;27;20055;-73
2023/09/08 08:54:04;;;;;;;14.37;6.00;;;26.10;89.70;;;;;;5136802;27;20043;-73
2023/09/08 08:56:31;;;;;;;7.97;6.40;;;26.10;89.30;;;;;;5120445;27;20526;-73
2023/09/08 08:58:59;;;;;;;12.32;6.25;;;26.10;90.40;;;;;;5136527;27;20042;-73
2023/09/08 09:01:26;;;;;;;8.40;5.00;;;26.10;90.90;;;;;;5136958;27;20126;-73
2023/09/08 09:03:52;;;;;;;10.23;5.35;;;26.00;91.80;;;;;;5136464;27;20051;-73
2023/09/08 09:06:18;;;;;;;9.30;5.13;;;26.10;92.00;;;;;;5119674;27;20050;-73
2023/09/08 09:08:45;;;;;;;8.27;5.63;;;26.00;92.70;;;;;;5136803;27;20450;-73
2023/09/08 09:11:11;;;;;;;13.13;6.10;;;26.00;92.60;;;;;;5119435;27;20103;-73
2023/09/08 09:13:37;;;;;;;9.33;5.27;;;26.10;92.70;;;;;;5155022;27;20125;-73
2023/09/08 09:16:07;;;;;;;7.50;5.03;;;26.00;92.90;;;;;;5136037;27;20095;-73
2023/09/08 09:18:33;;;;;;;9.30;5.50;;;26.00;93.50;;;;;;5154948;27;20066;-73
2023/09/08 09:21:01;;;;;;;8.93;5.90;;;26.00;93.80;;;;;;5135932;27;20165;-73
2023/09/08 09:23:32;;;;;;;9.07;5.37;;;26.00;94.10;;;;;;5136514;27;20095;-73
2023/09/08 09:25:59;;;;;;;7.60;5.93;;;26.00;94.10;;;;;;5136293;27;20107;-73
2023/09/08 09:28:25;;;;;;;11.00;6.50;;;26.10;94.60;;;;;;5119584;27;20054;-73
2023/09/08 09:30:54;;;;;;;8.93;5.67;;;26.00;94.80;;;;;;5136421;27;20386;-73
2023/09/08 09:33:20;;;;;;;8.90;5.40;;;26.00;95.00;;;;;;5136091;27;20100;-73
2023/09/08 09:35:52;;;;;;;11.53;5.57;;;26.00;95.20;;;;;;5102382;27;20042;-73
2023/09/08 09:38:19;;;;;;;9.83;5.37;;;26.10;95.30;;;;;;5085377;27;20539;-73
2023/09/08 09:40:45;;;;;;;7.17;4.90;;;26.10;95.70;;;;;;5118899;27;20046;-73
2023/09/08 09:43:12;;;;;;;8.13;5.33;;;26.10;96.10;;;;;;5131933;27;20136;-73
2023/09/08 09:45:39;;;;;;;9.23;5.10;;;26.20;96.30;;;;;;5115708;28;20407;-73
2023/09/08 09:48:07;;;;;;;7.13;4.80;;;26.20;96.70;;;;;;5132397;28;20047;-73
2023/09/08 09:50:40;;;;;;;7.77;5.50;;;26.20;95.50;;;;;;5133016;28;20062;-73
2023/09/08 09:53:12;;;;;;;8.07;4.95;;;26.30;95.50;;;;;;5115507;28;20502;-73
2023/09/08 09:55:39;;;;;;;8.03;5.07;;;26.30;95.80;;;;;;5133733;28;20054;-73
2023/09/08 09:58:05;;;;;;;9.27;4.90;;;26.30;95.50;;;;;;5133516;28;20439;-73
2023/09/08 10:00:33;;;;;;;7.50;4.43;;;26.30;95.50;;;;;;5135760;27;20043;-73
2023/09/08 10:02:59;;;;;;;8.20;5.03;;;26.40;95.40;;;;;;5119253;27;20051;-74
2023/09/08 10:05:26;;;;;;;7.13;4.73;;;26.40;95.30;;;;;;5136679;27;20106;-73
2023/09/08 10:07:52;;;;;;;7.70;4.77;;;26.40;95.20;;;;;;5136707;27;20096;-74
2023/09/08 10:10:20;;;;;;;7.50;5.27;;;26.40;95.60;;;;;;5119496;27;20043;-74
2023/09/08 10:12:54;;;;;;;14.53;5.37;;;26.50;95.80;;;;;;5136688;27;20554;-74
2023/09/08 10:15:24;;;;;;;9.97;5.03;;;26.50;95.70;;;;;;5136056;27;20047;-74
2023/09/08 10:17:58;;;;;;;7.30;4.97;;;26.50;95.60;;;;;;5136319;27;20419;-73
2023/09/08 10:20:25;;;;;;;7.75;5.03;;;26.50;95.40;;;;;;5119537;27;20039;-74
2023/09/08 10:23:19;;;;;;;10.03;5.13;;;26.60;95.60;;;;;;5136334;27;20134;-73
2023/09/08 10:25:53;;;;;;;7.75;4.43;;;26.60;95.70;;;;;;5133618;27;20138;-73
2023/09/08 10:28:19;;;;;;;7.50;5.05;;;26.60;95.90;;;;;;5119239;27;20069;-74
2023/09/08 10:30:46;;;;;;;11.13;4.53;;;26.70;95.80;;;;;;5137418;27;20054;-74
2023/09/08 10:33:13;;;;;;;9.47;5.10;;;26.70;96.00;;;;;;5119047;27;20067;-74
2023/09/08 10:35:40;;;;;;;6.50;4.37;;;26.70;96.20;;;;;;5119377;27;20126;-74
2023/09/08 10:38:28;;;;;;;7.00;4.90;;;26.70;96.10;;;;;;5119102;27;20043;-73
2023/09/08 10:41:16;;;;;;;8.20;4.77;;;26.70;95.60;;;;;;5136353;27;20039;-73
2023/09/08 10:43:56;;;;;;;9.23;5.30;;;26.70;96.30;;;;;;5135766;27;20108;-73
2023/09/08 10:46:30;;;;;;;5.97;4.70;;;26.80;96.20;;;;;;5102033;27;20051;-72
2023/09/08 10:49:06;;;;;;;8.40;5.22;;;26.80;96.70;;;;;;5136022;27;20509;-73
2023/09/08 10:51:33;;;;;;;10.60;4.83;;;26.80;97.40;;;;;;5137012;27;20039;-73
2023/09/08 10:53:59;;;;;;;6.37;4.70;;;26.80;96.80;;;;;;5118978;27;20050;-73
2023/09/08 10:56:50;;;;;;;8.33;5.30;;;26.80;97.00;;;;;;5118709;27;20047;-74
2023/09/08 10:59:16;;;;;;;7.27;4.97;;;26.70;97.20;;;;;;5118086;27;20096;-74
2023/09/08 11:01:42;;;;;;;8.87;5.13;;;26.70;97.10;;;;;;5136847;27;20039;-74
2023/09/08 11:04:10;;;;;;;7.27;4.70;;;26.70;97.30;;;;;;5135456;27;20051;-74
2023/09/08 11:06:37;;;;;;;8.73;5.00;;;26.80;97.60;;;;;;5136720;27;20131;-74
2023/09/08 11:09:09;;;;;;;8.17;4.77;;;26.80;96.90;;;;;;5135518;27;20386;-74
2023/09/08 11:11:36;;;;;;;8.17;4.23;;;26.80;96.00;;;;;;5134754;27;20113;-73
2023/09/08 11:14:03;;;;;;;7.57;4.90;;;26.90;96.10;;;;;;5135587;27;20097;-72
2023/09/08 11:16:31;;;;;;;6.30;4.40;;;26.90;95.90;;;;;;5118252;27;20051;-73
2023/09/08 11:18:57;;;;;;;7.87;4.67;;;27.00;95.50;;;;;;5136501;27;20043;-73
2023/09/08 11:21:23;;;;;;;9.33;5.07;;;27.00;95.20;;;;;;5134966;27;20066;-73
2023/09/08 11:23:49;;;;;;;8.87;4.73;;;27.00;95.60;;;;;;5135350;27;20082;-73
2023/09/08 11:26:16;;;;;;;7.13;4.80;;;27.00;96.10;;;;;;5134914;27;20043;-73
2023/09/08 11:28:42;;;;;;;10.13;4.83;;;27.10;96.00;;;;;;5135305;27;20074;-73
2023/09/08 11:31:08;;;;;;;9.40;5.03;;;27.20;96.20;;;;;;5117921;27;20475;-73
2023/09/08 11:33:39;;;;;;;7.07;4.83;;;27.20;96.10;;;;;;5135101;27;20058;-73
2023/09/08 11:36:13;;;;;;;6.30;4.80;;;27.30;95.70;;;;;;5135068;27;20055;-72
2023/09/08 11:38:39;;;;;;;5.95;4.40;;;27.30;95.20;;;;;;5134973;27;20046;-73
2023/09/08 11:41:05;;;;;;;8.50;5.20;;;27.30;95.00;;;;;;5101124;27;20476;-73
2023/09/08 11:43:33;;;;;;;7.77;4.97;;;27.40;94.90;;;;;;5134042;27;20062;-73
2023/09/08 11:45:59;;;;;;;7.30;4.77;;;27.40;94.00;;;;;;5135929;27;20112;-73
2023/09/08 11:48:25;;;;;;;9.57;4.90;;;27.40;94.30;;;;;;5134362;27;20470;-73
2023/09/08 11:50:53;;;;;;;7.93;4.77;;;27.40;94.20;;;;;;5134808;27;20047;-72
2023/09/08 11:53:20;;;;;;;7.73;4.43;;;27.50;93.50;;;;;;5134574;27;20042;-73
2023/09/08 11:55:47;;;;;;;10.57;4.40;;;27.50;92.80;;;;;;5134801;27;20090;-73
2023/09/08 11:58:14;;;;;;;6.73;4.57;;;27.50;93.00;;;;;;5135420;27;20122;-72
2023/09/08 12:00:40;;;;;;;8.03;5.00;;;27.50;93.00;;;;;;5117691;27;20055;-72
2023/09/08 12:03:15;;;;;;;9.47;5.33;;;27.50;92.90;;;;;;5134561;27;20489;-72
2023/09/08 12:05:42;;;;;;;;;;;27.40;93.10;;;;;;5118160;27;20407;-72
2023/09/08 12:08:07;;;;;;;9.30;4.73;;;27.40;93.00;;;;;;5135468;27;19919;-72
2023/09/08 12:10:40;;;;;;;6.67;4.57;;;27.30;92.70;;;;;;5100192;27;20047;-72
2023/09/08 12:13:07;;;;;;;7.43;4.40;;;27.30;93.10;;;;;;5134564;27;20055;-72
2023/09/08 12:15:40;;;;;;;7.73;5.00;;;27.40;93.30;;;;;;5134317;27;20126;-73
2023/09/08 12:18:08;;;;;;;7.22;4.40;;;27.40;93.20;;;;;;5117218;27;20047;-72
2023/09/08 12:20:36;;;;;;;10.40;4.83;;;27.40;93.00;;;;;;5135120;27;20058;-72
2023/09/08 12:23:04;;;;;;;10.80;5.03;;;27.40;92.20;;;;;;5117182;27;20047;-72
2023/09/08 12:25:33;;;;;;;9.90;4.27;;;27.40;92.10;;;;;;5134009;27;20086;-72
2023/09/08 12:28:00;;;;;;;9.80;4.80;;;27.40;92.40;;;;;;5135119;27;20122;-72
2023/09/08 12:30:29;;;;;;;6.03;4.20;;;27.50;92.00;;;;;;5133862;27;20118;-72
2023/09/08 12:32:58;;;;;;;6.23;4.20;;;27.50;91.70;;;;;;5133933;27;20047;-73
2023/09/08 12:35:25;;;;;;;8.80;4.40;;;27.50;91.10;;;;;;5116634;27;20050;-73
2023/09/08 12:38:05;;;;;;;8.37;4.53;;;27.50;90.90;;;;;;5133466;27;20406;-73
2023/09/08 12:40:36;;;;;;;6.03;4.20;;;27.50;90.10;;;;;;5133605;27;20179;-73